Terminal Aerodrome Forecast
Issued by NWS

Home | Current Version | Previous Version | Text Only | Print | Product List | Glossary On
Versions: 1 2 3 4 5 6 7 8 9 10 11 12 13
000
FTUS45 KRIW 220500
TAFCPR
TAF
KCPR 220532Z 2206/2306 08007KT P6SM VCSH SCT100 BKN150
     FM220900 08007KT P6SM SCT150
     FM221500 13007KT P6SM FEW150
     FM221900 20008KT P6SM SCT110
     FM230200 10011KT P6SM FEW120=

USA.gov is the U.S. government's official web portal to all federal, state and local government web resources and services.